Time;durP1;ratioP1;P1;durP2;ratioP2;P2;SDS_P1;SDS_P2;PMS_P1;PMS_P2;Temp;Humidity;BMP_temperature;BMP_pressure;BME280_temperature;BME280_humidity;BME280_pressure;Samples;Min_cycle;Max_cycle;Signal;HPM_P1;HPM_P2
2021/12/21 00:02:13;;;;;;;0.00;0.00;;;-0.40;99.90;;;;;;5090140;28;20032;-50
2021/12/21 00:04:38;;;;;;;0.00;0.00;;;-0.40;99.90;;;;;;5090053;28;20552;-51
2021/12/21 00:07:05;;;;;;;0.00;0.00;;;-0.40;99.90;;;;;;5089778;28;20100;-48
2021/12/21 00:09:31;;;;;;;0.00;0.00;;;-0.40;99.90;;;;;;5090308;28;20028;-48
2021/12/21 00:11:59;;;;;;;0.15;0.15;;;-0.50;99.90;;;;;;5089945;28;20029;-53
2021/12/21 00:14:45;;;;;;;0.00;0.00;;;-0.50;99.90;;;;;;5089552;28;20035;-48
2021/12/21 00:17:20;;;;;;;0.00;0.00;;;-0.50;99.90;;;;;;5075654;28;20467;-51
2021/12/21 00:20:08;;;;;;;0.00;0.00;;;-0.50;99.90;;;;;;5076375;28;20082;-45
2021/12/21 00:25:03;;;;;;;0.00;0.00;;;-0.50;99.90;;;;;;5076117;28;20056;-48
2021/12/21 00:27:29;;;;;;;0.00;0.00;;;-0.50;99.90;;;;;;5076193;28;20079;-47
2021/12/21 00:29:54;;;;;;;0.00;0.00;;;-0.50;99.90;;;;;;5076093;28;20028;-48
2021/12/21 00:32:20;;;;;;;0.00;0.00;;;-0.60;99.90;;;;;;5074802;28;20047;-47
2021/12/21 00:34:46;;;;;;;0.00;0.00;;;-0.60;99.90;;;;;;5074700;28;20056;-47
2021/12/21 00:37:11;;;;;;;2.08;1.65;;;-0.60;99.90;;;;;;5076246;28;20043;-48
2021/12/21 00:39:37;;;;;;;6.13;1.10;;;-0.60;99.90;;;;;;5075942;28;20021;-46
2021/12/21 00:42:03;;;;;;;0.00;0.00;;;-0.50;99.90;;;;;;5075634;28;20024;-48
2021/12/21 00:44:29;;;;;;;0.00;0.00;;;-0.60;99.90;;;;;;5074451;28;20040;-51
2021/12/21 00:46:54;;;;;;;0.00;0.00;;;-0.60;99.90;;;;;;5075485;28;20028;-50
2021/12/21 00:49:21;;;;;;;0.00;0.00;;;-0.60;99.90;;;;;;5074435;28;20109;-47
2021/12/21 00:51:48;;;;;;;0.05;0.05;;;-0.70;99.90;;;;;;5075998;28;20021;-50
2021/12/21 00:54:15;;;;;;;0.00;0.00;;;-0.60;99.90;;;;;;5074445;28;20119;-47
2021/12/21 00:56:40;;;;;;;1.27;0.77;;;-0.60;99.90;;;;;;5075694;28;20040;-49
2021/12/21 00:59:06;;;;;;;0.00;0.00;;;-0.60;99.90;;;;;;5074002;28;20024;-47
2021/12/21 01:01:35;;;;;;;0.00;0.00;;;-0.60;99.90;;;;;;5075521;28;20108;-49
2021/12/21 01:04:03;;;;;;;0.00;0.00;;;-0.60;99.90;;;;;;5075324;28;20368;-52
2021/12/21 01:11:51;;;;;;;0.00;0.00;;;-0.60;99.90;;;;;;5075176;28;20027;-48
2021/12/21 01:17:25;;;;;;;0.45;0.35;;;-0.60;99.90;;;;;;5075272;28;20404;-49
2021/12/21 01:20:10;;;;;;;0.00;0.00;;;-0.60;99.90;;;;;;5075263;28;20051;-48
2021/12/21 01:23:03;;;;;;;0.00;0.00;;;-0.60;99.90;;;;;;5075167;28;20065;-48
2021/12/21 01:28:17;;;;;;;0.00;0.00;;;-0.70;99.90;;;;;;5073846;28;20112;-49
2021/12/21 01:31:25;;;;;;;0.00;0.00;;;-0.80;99.90;;;;;;5073744;28;20379;-50
2021/12/21 01:33:51;;;;;;;0.25;0.25;;;-0.70;99.90;;;;;;5074343;28;20040;-52
2021/12/21 01:36:42;;;;;;;0.00;0.00;;;-0.80;99.90;;;;;;5074584;28;20494;-50
2021/12/21 01:39:39;;;;;;;0.00;0.00;;;-0.80;99.90;;;;;;5074388;28;20028;-51
2021/12/21 01:42:06;;;;;;;0.00;0.00;;;-0.80;99.90;;;;;;5074276;28;20024;-49
2021/12/21 01:49:33;;;;;;;0.00;0.00;;;-0.80;99.90;;;;;;5074646;28;20033;-50
2021/12/21 01:50:01;;;;;;;0.00;0.00;;;-0.80;99.90;;;;;;5074285;28;20391;-50
2021/12/21 01:52:27;;;;;;;0.00;0.00;;;-0.80;99.90;;;;;;5074204;28;20463;-50
2021/12/21 01:54:54;;;;;;;0.00;0.00;;;-0.80;99.90;;;;;;5073077;28;20057;-47
2021/12/21 01:57:21;;;;;;;0.00;0.00;;;-0.80;99.90;;;;;;5073106;28;20114;-50
2021/12/21 01:59:48;;;;;;;0.00;0.00;;;-0.90;99.90;;;;;;5074088;28;20020;-50
2021/12/21 02:02:16;;;;;;;0.00;0.00;;;-0.90;99.90;;;;;;5074125;28;20033;-50
2021/12/21 02:04:42;;;;;;;0.00;0.00;;;-0.90;99.90;;;;;;5074238;28;20060;-48
2021/12/21 02:07:09;;;;;;;0.00;0.00;;;-0.90;99.90;;;;;;5073982;28;20056;-47
2021/12/21 02:09:38;;;;;;;0.00;0.00;;;-1.00;99.90;;;;;;5074198;28;20412;-50
2021/12/21 02:12:14;;;;;;;0.38;0.38;;;-0.90;99.90;;;;;;5073863;28;20124;-47
2021/12/21 02:14:41;;;;;;;0.00;0.00;;;-0.90;99.90;;;;;;5073963;28;20024;-48
2021/12/21 02:20:01;;;;;;;0.00;0.00;;;-0.90;99.90;;;;;;5074059;28;20104;-49
2021/12/21 02:22:31;;;;;;;0.10;0.10;;;-0.90;99.90;;;;;;5074007;28;20366;-49
2021/12/21 02:25:18;;;;;;;0.00;0.00;;;-0.90;99.90;;;;;;5073805;28;20119;-50
2021/12/21 02:27:54;;;;;;;2.85;2.08;;;-0.90;99.90;;;;;;5073760;27;20486;-52
2021/12/21 02:30:20;;;;;;;0.00;0.00;;;-0.90;99.90;;;;;;5074235;28;20025;-48
2021/12/21 02:32:45;;;;;;;0.00;0.00;;;-1.00;99.90;;;;;;5073814;28;20017;-52
2021/12/21 02:35:11;;;;;;;0.00;0.00;;;-1.00;99.90;;;;;;5073588;28;20375;-50
2021/12/21 02:37:37;;;;;;;0.00;0.00;;;-1.10;99.90;;;;;;5073440;28;20051;-47
2021/12/21 02:40:04;;;;;;;0.00;0.00;;;-1.20;99.90;;;;;;5073653;28;20060;-47
2021/12/21 02:42:30;;;;;;;0.00;0.00;;;-1.20;99.90;;;;;;5073367;28;20024;-51
2021/12/21 02:44:56;;;;;;;0.00;0.00;;;-1.20;99.90;;;;;;5073704;28;20119;-50
2021/12/21 02:47:21;;;;;;;0.00;0.00;;;-1.20;99.90;;;;;;5073316;28;20437;-47
2021/12/21 02:49:47;;;;;;;0.00;0.00;;;-1.30;99.90;;;;;;5073775;28;20029;-53
2021/12/21 02:52:13;;;;;;;0.00;0.00;;;-1.30;99.90;;;;;;5073382;28;20428;-51
2021/12/21 02:54:38;;;;;;;0.00;0.00;;;-1.40;99.90;;;;;;5073740;28;20025;-49
2021/12/21 02:57:04;;;;;;;0.00;0.00;;;-1.40;99.90;;;;;;5073837;28;20048;-52
2021/12/21 02:59:30;;;;;;;0.00;0.00;;;-1.30;99.90;;;;;;5072340;28;20111;-49
2021/12/21 03:01:56;;;;;;;0.00;0.00;;;-1.30;99.90;;;;;;5073822;28;20515;-49
2021/12/21 03:04:21;;;;;;;0.00;0.00;;;-1.20;99.90;;;;;;5073365;28;20059;-53
2021/12/21 03:07:23;;;;;;;0.00;0.00;;;-1.10;99.90;;;;;;5073472;28;20046;-49
2021/12/21 03:09:54;;;;;;;0.88;0.88;;;-1.10;99.90;;;;;;5073174;28;20033;-49
2021/12/21 03:14:49;;;;;;;0.00;0.00;;;-0.90;99.90;;;;;;5073410;28;20483;-46
2021/12/21 03:17:15;;;;;;;0.00;0.00;;;-0.90;99.90;;;;;;5073079;28;20024;-48
2021/12/21 03:19:41;;;;;;;0.00;0.00;;;-0.90;99.90;;;;;;5073396;28;20032;-49
2021/12/21 03:22:09;;;;;;;0.08;0.08;;;-0.90;99.90;;;;;;5072852;28;20025;-50
2021/12/21 03:24:35;;;;;;;0.00;0.00;;;-1.00;99.90;;;;;;5072911;28;20032;-49
2021/12/21 03:27:02;;;;;;;0.00;0.00;;;-1.00;99.90;;;;;;5072982;28;20021;-50
2021/12/21 03:29:28;;;;;;;0.00;0.00;;;-1.00;99.90;;;;;;5073208;28;20020;-48
2021/12/21 03:31:54;;;;;;;0.00;0.00;;;-1.00;99.90;;;;;;5072949;28;20021;-48
2021/12/21 03:34:20;;;;;;;0.00;0.00;;;-1.00;99.90;;;;;;5073519;28;20119;-48
2021/12/21 03:36:46;;;;;;;0.00;0.00;;;-0.90;99.90;;;;;;5073200;28;20025;-46
2021/12/21 03:39:17;;;;;;;0.00;0.00;;;-0.80;99.90;;;;;;5073220;28;20506;-46
2021/12/21 03:41:47;;;;;;;0.05;0.05;;;-0.90;99.90;;;;;;5072843;28;20032;-49
2021/12/21 03:44:14;;;;;;;0.00;0.00;;;-0.90;99.90;;;;;;5071526;28;20444;-49
2021/12/21 03:46:52;;;;;;;0.00;0.00;;;-0.80;99.90;;;;;;5073034;28;20440;-47
2021/12/21 03:51:58;;;;;;;0.00;0.00;;;-0.70;99.90;;;;;;5076209;28;20344;-48
2021/12/21 03:54:24;;;;;;;0.00;0.00;;;-0.70;99.90;;;;;;5076387;28;20483;-48
2021/12/21 03:56:51;;;;;;;0.00;0.00;;;-0.70;99.90;;;;;;5076451;28;20028;-51
2021/12/21 03:59:18;;;;;;;0.00;0.00;;;-0.70;99.90;;;;;;5076671;28;20035;-50
2021/12/21 04:01:46;;;;;;;0.00;0.00;;;-0.70;99.90;;;;;;5076916;28;20028;-50
2021/12/21 04:04:12;;;;;;;0.00;0.00;;;-0.70;99.90;;;;;;5076245;28;20083;-50
2021/12/21 04:06:37;;;;;;;0.00;0.00;;;-0.70;99.90;;;;;;5076575;28;20028;-47
2021/12/21 04:09:05;;;;;;;0.00;0.00;;;-0.80;99.90;;;;;;5076094;28;20048;-47
2021/12/21 04:11:32;;;;;;;0.00;0.00;;;-0.90;99.90;;;;;;5076133;28;20028;-48
2021/12/21 04:13:58;;;;;;;0.00;0.00;;;-0.90;99.90;;;;;;5076571;28;20111;-52
2021/12/21 04:16:24;;;;;;;0.00;0.00;;;-0.80;99.90;;;;;;5076509;28;20020;-48
2021/12/21 04:18:49;;;;;;;0.00;0.00;;;-0.90;99.90;;;;;;5075874;28;20108;-47
2021/12/21 04:21:15;;;;;;;0.00;0.00;;;-1.00;99.90;;;;;;5074745;28;20032;-49
2021/12/21 04:23:42;;;;;;;0.00;0.00;;;-1.10;99.90;;;;;;5075823;28;20032;-48
2021/12/21 04:26:10;;;;;;;0.00;0.00;;;-1.20;99.90;;;;;;5075631;28;20055;-48
2021/12/21 04:28:36;;;;;;;0.00;0.00;;;-1.30;99.90;;;;;;5075998;28;20511;-50
2021/12/21 04:31:03;;;;;;;1.25;1.17;;;-1.20;99.90;;;;;;5074618;28;20119;-46
2021/12/21 04:33:29;;;;;;;0.00;0.00;;;-1.20;99.90;;;;;;5075794;28;20024;-48
2021/12/21 04:35:54;;;;;;;0.00;0.00;;;-1.20;99.90;;;;;;5075701;28;20031;-49
2021/12/21 04:38:22;;;;;;;0.22;0.22;;;-1.20;99.90;;;;;;5075830;28;20501;-49
2021/12/21 04:41:02;;;;;;;0.00;0.00;;;-1.20;99.90;;;;;;5075813;28;20099;-49
2021/12/21 04:43:27;;;;;;;0.00;0.00;;;-1.10;99.90;;;;;;5075386;28;20044;-51
2021/12/21 04:45:53;;;;;;;0.57;0.57;;;-1.00;99.90;;;;;;5075346;28;20059;-47
2021/12/21 04:48:19;;;;;;;0.00;0.00;;;-1.00;99.90;;;;;;5075304;28;20033;-50
2021/12/21 04:50:45;;;;;;;0.00;0.00;;;-1.00;99.90;;;;;;5075437;28;20511;-49
2021/12/21 04:53:10;;;;;;;3.33;0.75;;;-0.90;99.90;;;;;;5075199;28;20383;-52
2021/12/21 04:55:36;;;;;;;0.00;0.00;;;-0.90;99.90;;;;;;5075266;28;20021;-47
2021/12/21 04:58:02;;;;;;;0.43;0.43;;;-0.80;99.90;;;;;;5075300;28;20467;-49
2021/12/21 05:00:28;;;;;;;0.40;0.40;;;-0.70;99.90;;;;;;5075197;28;20028;-49
2021/12/21 05:02:54;;;;;;;0.35;0.35;;;-0.80;99.90;;;;;;5075073;28;20020;-46
2021/12/21 05:05:20;;;;;;;0.00;0.00;;;-0.70;99.90;;;;;;5107188;28;20144;-48
2021/12/21 05:07:51;;;;;;;0.00;0.00;;;-0.60;99.90;;;;;;5074997;28;20021;-48
2021/12/21 05:10:18;;;;;;;0.00;0.00;;;-0.60;99.90;;;;;;5075115;28;20051;-47
2021/12/21 05:12:44;;;;;;;0.00;0.00;;;-0.60;99.90;;;;;;5075147;28;20407;-47
2021/12/21 05:15:10;;;;;;;0.00;0.00;;;-0.60;99.90;;;;;;5075125;28;20067;-47
2021/12/21 05:17:35;;;;;;;0.00;0.00;;;-0.50;99.90;;;;;;5074896;28;20048;-49
2021/12/21 05:20:01;;;;;;;0.00;0.00;;;-0.50;99.90;;;;;;5074809;28;20103;-48
2021/12/21 05:22:27;;;;;;;0.00;0.00;;;-0.40;99.90;;;;;;5074852;28;20048;-47
2021/12/21 05:24:53;;;;;;;0.00;0.00;;;-0.30;99.90;;;;;;5074665;28;20029;-50
2021/12/21 05:27:19;;;;;;;0.08;0.08;;;-0.30;99.90;;;;;;5074585;28;20490;-44
2021/12/21 05:29:45;;;;;;;0.00;0.00;;;-0.30;99.90;;;;;;5074341;28;20020;-48
2021/12/21 05:32:11;;;;;;;0.00;0.00;;;-0.30;99.90;;;;;;5074380;28;20040;-47
2021/12/21 05:34:37;;;;;;;0.00;0.00;;;-0.40;99.90;;;;;;5074400;28;20029;-48
2021/12/21 05:37:06;;;;;;;0.05;0.05;;;-0.40;99.90;;;;;;5074460;28;20107;-47
2021/12/21 05:39:41;;;;;;;0.00;0.00;;;-0.40;99.90;;;;;;5074218;28;20590;-49
2021/12/21 05:42:08;;;;;;;0.00;0.00;;;-0.50;99.90;;;;;;5074184;28;20075;-47
2021/12/21 05:44:33;;;;;;;0.00;0.00;;;-0.40;99.90;;;;;;5072895;28;20048;-48
2021/12/21 05:46:59;;;;;;;0.00;0.00;;;-0.40;99.90;;;;;;5073204;28;20037;-46
2021/12/21 05:49:25;;;;;;;0.00;0.00;;;-0.40;99.90;;;;;;5073054;28;20047;-46
2021/12/21 05:51:52;;;;;;;0.00;0.00;;;-0.40;99.90;;;;;;5074324;28;20023;-48
2021/12/21 05:54:21;;;;;;;0.00;0.00;;;-0.40;99.90;;;;;;5073782;28;20051;-50
2021/12/21 05:56:47;;;;;;;0.00;0.00;;;-0.40;99.90;;;;;;5073624;28;20024;-50
2021/12/21 05:59:13;;;;;;;0.00;0.00;;;-0.30;99.90;;;;;;5074199;28;20059;-48
2021/12/21 06:01:39;;;;;;;0.00;0.00;;;-0.30;99.90;;;;;;5074076;28;20417;-47
2021/12/21 06:04:05;;;;;;;0.00;0.00;;;-0.20;99.90;;;;;;5073540;28;20052;-52
2021/12/21 06:06:32;;;;;;;0.00;0.00;;;-0.20;99.90;;;;;;5074220;28;20025;-51
2021/12/21 06:09:02;;;;;;;0.20;0.20;;;-0.10;99.90;;;;;;5073940;28;20494;-49
2021/12/21 06:11:28;;;;;;;0.00;0.00;;;-0.10;99.90;;;;;;5073548;28;20028;-49
2021/12/21 06:22:44;;;;;;;2.63;2.05;;;-0.10;99.90;;;;;;5073274;28;20031;-49
2021/12/21 06:25:23;;;;;;;6.10;3.47;;;0.00;99.90;;;;;;5073349;28;20059;-50
2021/12/21 06:27:38;;;;;;;0.00;0.00;;;0.00;99.90;;;;;;5072654;28;20028;-47
2021/12/21 06:30:05;;;;;;;0.00;0.00;;;0.00;99.90;;;;;;5072653;28;20493;-50
2021/12/21 06:32:31;;;;;;;0.00;0.00;;;0.10;99.90;;;;;;5073376;28;20067;-49
2021/12/21 06:34:56;;;;;;;0.10;0.10;;;0.10;99.90;;;;;;5072085;28;20067;-53
2021/12/21 06:37:22;;;;;;;0.45;0.45;;;0.10;99.90;;;;;;5073245;28;20036;-48
2021/12/21 06:39:48;;;;;;;0.00;0.00;;;0.10;99.90;;;;;;5072003;28;20079;-48
2021/12/21 06:42:14;;;;;;;0.00;0.00;;;0.10;99.90;;;;;;5072984;28;20021;-47
2021/12/21 06:44:41;;;;;;;0.00;0.00;;;0.10;99.90;;;;;;5073074;28;20081;-47
2021/12/21 06:52:38;;;;;;;0.00;0.00;;;0.00;99.90;;;;;;5073295;28;20039;-46
2021/12/21 06:55:05;;;;;;;0.00;0.00;;;0.00;99.90;;;;;;5073186;28;20025;-49
2021/12/21 06:57:30;;;;;;;0.40;0.40;;;0.00;99.90;;;;;;5073186;28;20023;-47
2021/12/21 06:59:56;;;;;;;0.10;0.10;;;0.00;99.90;;;;;;5072909;28;20107;-46
2021/12/21 07:02:22;;;;;;;0.00;0.00;;;0.10;99.90;;;;;;5072744;28;20032;-52
2021/12/21 07:04:48;;;;;;;0.00;0.00;;;0.00;99.90;;;;;;5072493;28;20055;-52
2021/12/21 07:07:16;;;;;;;0.80;0.80;;;0.10;99.90;;;;;;5071539;28;20024;-47
2021/12/21 07:09:45;;;;;;;0.03;0.03;;;0.00;99.90;;;;;;5072882;28;20384;-48
2021/12/21 07:17:47;;;;;;;0.03;0.03;;;0.00;99.90;;;;;;5073142;28;20025;-48
2021/12/21 07:20:24;;;;;;;0.57;0.57;;;0.00;99.90;;;;;;5072836;28;20028;-50
2021/12/21 07:22:50;;;;;;;2.72;1.00;;;-0.10;99.90;;;;;;5072353;28;20054;-48
2021/12/21 07:25:15;;;;;;;0.00;0.00;;;0.00;99.90;;;;;;5073320;28;20073;-47
2021/12/21 07:27:42;;;;;;;0.00;0.00;;;-0.10;99.90;;;;;;5076701;28;20112;-47
2021/12/21 07:30:09;;;;;;;0.00;0.00;;;0.00;99.90;;;;;;5076403;28;20025;-46
2021/12/21 07:32:34;;;;;;;0.70;0.70;;;0.10;99.90;;;;;;5076575;28;20028;-49
2021/12/21 07:35:01;;;;;;;0.00;0.00;;;0.10;99.90;;;;;;5076044;28;20035;-49
2021/12/21 07:37:26;;;;;;;0.00;0.00;;;0.10;99.90;;;;;;5076474;28;20035;-48
2021/12/21 07:39:52;;;;;;;0.00;0.00;;;0.10;99.90;;;;;;5076490;28;20028;-50
2021/12/21 07:42:19;;;;;;;0.60;0.60;;;0.20;99.90;;;;;;5076440;28;20116;-50
2021/12/21 07:44:45;;;;;;;0.43;0.43;;;0.20;99.90;;;;;;5075972;28;20536;-51
2021/12/21 07:47:11;;;;;;;0.77;0.75;;;0.20;99.90;;;;;;5108918;28;20024;-52
2021/12/21 07:49:37;;;;;;;0.40;0.40;;;0.10;99.90;;;;;;5076628;28;20480;-49
2021/12/21 07:52:03;;;;;;;0.08;0.08;;;0.10;99.90;;;;;;5075927;28;20436;-50
2021/12/21 07:54:29;;;;;;;0.30;0.30;;;0.20;99.90;;;;;;5075465;28;20097;-52
2021/12/21 07:56:54;;;;;;;0.00;0.00;;;0.20;99.90;;;;;;5075885;28;20021;-49
2021/12/21 07:59:20;;;;;;;0.38;0.38;;;0.30;99.90;;;;;;5075705;28;20495;-48
2021/12/21 08:01:46;;;;;;;0.05;0.05;;;0.40;99.90;;;;;;5076121;28;20162;-48
2021/12/21 08:04:12;;;;;;;0.20;0.20;;;0.40;99.90;;;;;;5074357;28;20054;-49
2021/12/21 08:06:39;;;;;;;0.00;0.00;;;0.30;99.90;;;;;;5076013;28;20024;-50
2021/12/21 08:09:05;;;;;;;1.75;0.45;;;0.20;99.90;;;;;;5075856;28;20032;-48
2021/12/21 08:14:01;;;;;;;0.00;0.00;;;0.10;99.90;;;;;;5075567;28;20032;-50
2021/12/21 08:16:27;;;;;;;0.00;0.00;;;0.20;99.90;;;;;;5074419;28;20043;-49
2021/12/21 08:18:52;;;;;;;0.47;0.47;;;0.20;99.90;;;;;;5075691;28;20029;-48
2021/12/21 08:21:19;;;;;;;0.00;0.00;;;0.30;99.90;;;;;;5074478;28;20025;-46
2021/12/21 08:23:45;;;;;;;0.00;0.00;;;0.30;99.90;;;;;;5075557;28;20031;-51
2021/12/21 08:26:11;;;;;;;0.00;0.00;;;0.30;99.90;;;;;;5075369;28;20059;-52
2021/12/21 08:28:37;;;;;;;0.00;0.00;;;0.30;99.90;;;;;;5075578;28;20041;-48
2021/12/21 08:31:03;;;;;;;0.00;0.00;;;0.40;99.90;;;;;;5075519;28;20099;-49
2021/12/21 08:33:29;;;;;;;0.00;0.00;;;0.50;99.90;;;;;;5075458;28;20070;-50
2021/12/21 08:35:55;;;;;;;0.22;0.22;;;0.60;99.90;;;;;;5074510;28;20032;-46
2021/12/21 08:38:21;;;;;;;0.60;0.60;;;0.60;99.90;;;;;;5075250;28;20516;-51
2021/12/21 08:40:50;;;;;;;0.00;0.00;;;0.50;99.90;;;;;;5075327;28;20033;-47
2021/12/21 08:43:24;;;;;;;0.00;0.00;;;0.60;99.90;;;;;;5075532;28;20095;-47
2021/12/21 08:45:52;;;;;;;0.00;0.00;;;0.60;99.90;;;;;;5075388;28;20066;-50
2021/12/21 08:48:18;;;;;;;0.10;0.10;;;0.70;99.90;;;;;;5075343;28;20024;-48
2021/12/21 08:50:46;;;;;;;0.00;0.00;;;0.70;99.90;;;;;;5075344;28;20075;-51
2021/12/21 08:53:14;;;;;;;0.00;0.00;;;0.80;99.90;;;;;;5074869;28;20031;-52
2021/12/21 08:55:43;;;;;;;0.85;0.22;;;0.70;99.90;;;;;;5075266;28;20375;-50
2021/12/21 08:58:10;;;;;;;0.30;0.30;;;0.80;99.90;;;;;;5074719;28;20025;-50
2021/12/21 09:00:37;;;;;;;0.00;0.00;;;0.80;99.90;;;;;;5074918;28;20029;-48
2021/12/21 09:03:04;;;;;;;0.00;0.00;;;1.00;99.90;;;;;;5074649;28;20024;-49
2021/12/21 09:05:31;;;;;;;0.00;0.00;;;1.30;99.90;;;;;;5074640;28;20044;-48
2021/12/21 09:07:58;;;;;;;0.00;0.00;;;1.50;99.90;;;;;;5075045;28;20024;-48
2021/12/21 09:10:24;;;;;;;0.00;0.00;;;1.60;99.90;;;;;;5074753;28;20410;-50
2021/12/21 09:12:51;;;;;;;0.00;0.00;;;1.70;99.90;;;;;;5074699;28;20056;-49
2021/12/21 09:15:17;;;;;;;0.00;0.00;;;1.70;99.90;;;;;;5074677;28;20024;-48
2021/12/21 09:17:44;;;;;;;0.00;0.00;;;1.80;99.90;;;;;;5074646;28;20031;-48
2021/12/21 09:20:13;;;;;;;0.00;0.00;;;1.80;99.90;;;;;;5074524;28;20074;-52
2021/12/21 09:22:39;;;;;;;0.25;0.25;;;1.90;99.90;;;;;;5073346;28;20052;-50
2021/12/21 09:25:05;;;;;;;0.63;0.63;;;1.90;99.90;;;;;;5074098;28;20387;-50
2021/12/21 09:27:31;;;;;;;0.00;0.00;;;1.90;99.90;;;;;;5074017;28;20058;-48
2021/12/21 09:29:57;;;;;;;0.00;0.00;;;1.80;99.90;;;;;;5074117;28;20455;-48
2021/12/21 09:32:25;;;;;;;1.48;1.08;;;1.90;99.90;;;;;;5074693;28;20046;-47
2021/12/21 09:34:51;;;;;;;0.52;0.38;;;2.00;99.90;;;;;;5074347;28;20040;-47
2021/12/21 09:37:20;;;;;;;0.25;0.25;;;2.00;99.90;;;;;;5072590;28;20039;-50
2021/12/21 09:39:49;;;;;;;0.00;0.00;;;2.10;99.90;;;;;;5074050;28;20021;-47
2021/12/21 09:42:24;;;;;;;5.22;2.33;;;2.00;99.90;;;;;;5074138;28;20048;-49
2021/12/21 09:44:51;;;;;;;4.57;1.58;;;1.20;99.90;;;;;;5074149;28;20040;-49
2021/12/21 09:47:16;;;;;;;0.00;0.00;;;1.00;99.90;;;;;;5073773;28;20113;-52
2021/12/21 09:49:44;;;;;;;0.00;0.00;;;1.00;99.90;;;;;;5073338;28;20462;-47
2021/12/21 09:52:12;;;;;;;0.20;0.20;;;1.10;99.90;;;;;;5072529;28;20112;-50
2021/12/21 09:54:39;;;;;;;0.32;0.32;;;1.20;99.90;;;;;;5073672;28;20028;-48
2021/12/21 09:57:06;;;;;;;3.10;2.72;;;1.00;99.90;;;;;;5073380;28;20024;-48
2021/12/21 09:59:32;;;;;;;0.00;0.00;;;1.20;99.90;;;;;;5073650;28;20436;-49
2021/12/21 10:01:58;;;;;;;2.08;1.88;;;1.60;99.90;;;;;;5073374;28;20025;-46
2021/12/21 10:04:26;;;;;;;3.88;2.58;;;1.80;99.90;;;;;;5073459;28;20094;-48
2021/12/21 10:06:54;;;;;;;0.25;0.17;;;1.30;99.90;;;;;;5073371;28;20063;-51
2021/12/21 10:09:23;;;;;;;0.00;0.00;;;0.60;99.90;;;;;;5072453;28;20024;-47
2021/12/21 10:11:49;;;;;;;2.90;2.63;;;0.90;99.90;;;;;;5073607;28;20032;-49
2021/12/21 10:14:16;;;;;;;0.30;0.30;;;1.50;99.90;;;;;;5073730;28;20029;-50
2021/12/21 10:16:44;;;;;;;0.00;0.00;;;1.70;99.90;;;;;;5073816;28;20029;-48
2021/12/21 10:19:21;;;;;;;2.42;1.27;;;2.10;99.90;;;;;;5073089;28;20047;-47
2021/12/21 10:21:47;;;;;;;0.28;0.28;;;1.80;99.90;;;;;;5073431;28;20025;-48
2021/12/21 10:24:23;;;;;;;0.00;0.00;;;2.10;99.90;;;;;;5073446;28;20033;-47
2021/12/21 10:26:52;;;;;;;2.00;0.40;;;2.30;99.90;;;;;;5073180;28;20021;-49
2021/12/21 10:29:18;;;;;;;0.50;0.50;;;2.20;99.90;;;;;;5073216;28;20118;-55
2021/12/21 10:31:46;;;;;;;2.15;1.17;;;1.60;99.90;;;;;;5073560;28;20043;-48
2021/12/21 10:34:15;;;;;;;1.67;1.08;;;1.10;99.90;;;;;;5072852;28;20032;-50
2021/12/21 10:36:50;;;;;;;4.20;2.78;;;0.90;99.90;;;;;;5072811;28;20082;-46
2021/12/21 10:39:31;;;;;;;0.00;0.00;;;0.70;99.90;;;;;;5073140;28;20028;-49
2021/12/21 10:42:00;;;;;;;2.28;1.55;;;0.80;99.90;;;;;;5071842;28;20027;-46
2021/12/21 10:44:26;;;;;;;0.70;0.45;;;1.40;99.90;;;;;;5071527;28;20032;-50
2021/12/21 10:46:54;;;;;;;0.60;0.20;;;1.70;99.90;;;;;;5072566;28;20031;-47
2021/12/21 10:49:27;;;;;;;1.45;0.90;;;1.90;99.90;;;;;;5072980;28;20024;-48
2021/12/21 10:52:04;;;;;;;0.00;0.00;;;1.80;99.90;;;;;;5073071;28;20481;-52
2021/12/21 10:54:36;;;;;;;4.28;1.65;;;2.00;99.90;;;;;;5072908;28;20391;-51
2021/12/21 10:57:15;;;;;;;0.30;0.30;;;2.20;99.90;;;;;;5072734;28;20021;-51
2021/12/21 10:59:45;;;;;;;0.10;0.10;;;1.90;99.90;;;;;;5072586;28;20039;-48
2021/12/21 11:02:25;;;;;;;0.00;0.00;;;2.00;99.90;;;;;;5073325;28;20034;-47
2021/12/21 11:04:56;;;;;;;0.38;0.38;;;2.20;99.90;;;;;;5070913;28;20450;-46
2021/12/21 11:10:01;;;;;;;0.00;0.00;;;2.30;99.90;;;;;;5072791;28;20475;-54
2021/12/21 11:12:28;;;;;;;0.03;0.03;;;2.10;99.90;;;;;;5071507;28;20052;-50
2021/12/21 11:14:57;;;;;;;1.58;1.42;;;2.00;99.90;;;;;;5072604;28;20028;-49
2021/12/21 11:17:24;;;;;;;0.30;0.30;;;1.90;99.90;;;;;;5071239;28;20025;-48
2021/12/21 11:19:53;;;;;;;0.38;0.30;;;1.90;99.90;;;;;;5072629;28;20486;-53
2021/12/21 11:22:21;;;;;;;3.45;1.30;;;2.20;99.90;;;;;;5072888;28;20028;-49
2021/12/21 11:24:48;;;;;;;1.42;1.33;;;2.10;99.90;;;;;;5072773;28;20064;-46
2021/12/21 11:27:15;;;;;;;1.02;0.90;;;1.80;99.90;;;;;;5072766;28;20054;-51
2021/12/21 11:29:41;;;;;;;3.92;2.60;;;1.80;99.90;;;;;;5072792;28;20024;-47
2021/12/21 11:32:07;;;;;;;1.08;0.98;;;1.70;99.90;;;;;;5072434;28;20025;-49
2021/12/21 11:34:36;;;;;;;0.28;0.28;;;1.70;99.90;;;;;;5072635;28;20029;-49
2021/12/21 11:37:20;;;;;;;2.55;0.25;;;1.90;99.90;;;;;;5072599;28;20044;-48
2021/12/21 11:39:47;;;;;;;0.85;0.65;;;2.20;99.90;;;;;;5071990;28;20035;-47
2021/12/21 11:42:38;;;;;;;1.85;1.05;;;2.70;99.90;;;;;;5072265;28;20047;-51
2021/12/21 11:45:34;;;;;;;3.13;1.88;;;3.00;99.90;;;;;;5072227;28;20028;-46
2021/12/21 11:48:10;;;;;;;0.10;0.10;;;2.80;99.90;;;;;;5068892;28;20039;-47
2021/12/21 11:50:37;;;;;;;0.90;0.90;;;2.70;99.90;;;;;;5072446;28;20053;-48
2021/12/21 11:53:07;;;;;;;0.00;0.00;;;2.90;99.90;;;;;;5072232;28;20108;-50
2021/12/21 11:55:36;;;;;;;0.00;0.00;;;2.90;99.90;;;;;;5072461;28;20036;-49
2021/12/21 11:58:23;;;;;;;9.63;1.88;;;3.00;99.90;;;;;;5072280;28;20046;-52
2021/12/21 12:01:04;;;;;;;0.00;0.00;;;3.00;99.90;;;;;;5072289;28;20066;-49
2021/12/21 12:03:33;;;;;;;0.70;0.38;;;3.00;99.90;;;;;;5072571;28;20487;-50
2021/12/21 12:06:05;;;;;;;0.00;0.00;;;2.80;99.90;;;;;;5071976;28;20519;-47
2021/12/21 12:09:02;;;;;;;0.03;0.03;;;3.00;99.90;;;;;;5072208;28;20016;-48
2021/12/21 12:11:37;;;;;;;0.00;0.00;;;3.10;99.90;;;;;;5068550;28;20040;-49
2021/12/21 12:14:17;;;;;;;0.43;0.43;;;3.20;99.90;;;;;;5075659;28;20032;-47
2021/12/21 12:16:56;;;;;;;3.72;1.65;;;3.10;99.90;;;;;;5075222;28;20020;-47
2021/12/21 12:19:32;;;;;;;2.72;0.98;;;2.90;99.90;;;;;;5074411;28;20078;-51
2021/12/21 12:22:07;;;;;;;0.00;0.00;;;2.80;99.90;;;;;;5075772;28;20108;-52
2021/12/21 12:24:34;;;;;;;0.63;0.63;;;2.80;99.90;;;;;;5075199;28;20039;-50
2021/12/21 12:27:07;;;;;;;1.52;1.08;;;2.80;99.90;;;;;;5075074;28;20031;-52
2021/12/21 12:29:56;;;;;;;3.92;1.92;;;2.60;99.90;;;;;;5073795;28;20024;-51
2021/12/21 12:32:34;;;;;;;1.55;1.17;;;2.50;99.90;;;;;;5107975;28;20468;-51
2021/12/21 12:35:05;;;;;;;4.75;0.57;;;2.10;99.90;;;;;;5075659;28;20485;-48
2021/12/21 12:37:30;;;;;;;3.30;2.72;;;2.20;99.90;;;;;;5075194;28;20067;-51
2021/12/21 12:40:11;;;;;;;1.92;0.93;;;1.90;99.90;;;;;;5075084;28;20060;-50
2021/12/21 12:42:36;;;;;;;3.45;2.85;;;1.80;99.90;;;;;;5075331;28;20028;-51
2021/12/21 12:45:19;;;;;;;0.00;0.00;;;1.50;99.90;;;;;;5075188;28;20036;-51
2021/12/21 12:47:47;;;;;;;4.28;1.10;;;1.80;99.90;;;;;;5075156;28;20089;-53
2021/12/21 12:50:23;;;;;;;2.95;2.67;;;1.90;99.90;;;;;;5075505;28;20024;-52
2021/12/21 12:53:04;;;;;;;0.90;0.63;;;2.30;99.90;;;;;;5075052;28;20115;-50
2021/12/21 12:55:58;;;;;;;8.18;1.98;;;2.20;99.90;;;;;;5074784;28;20035;-51
2021/12/21 12:58:26;;;;;;;2.03;1.38;;;2.10;99.90;;;;;;5074606;28;20029;-51
2021/12/21 13:00:55;;;;;;;3.42;2.30;;;2.20;99.90;;;;;;5074752;28;20020;-49
2021/12/21 13:03:22;;;;;;;7.30;6.60;;;1.80;99.90;;;;;;5074776;28;20093;-51
2021/12/21 13:05:56;;;;;;;0.00;0.00;;;1.90;99.90;;;;;;5075001;28;20028;-49
2021/12/21 13:08:23;;;;;;;1.35;0.17;;;1.90;99.90;;;;;;5074771;28;20059;-46
2021/12/21 13:10:52;;;;;;;5.93;1.25;;;2.10;99.90;;;;;;5073934;28;20481;-50
2021/12/21 13:13:19;;;;;;;1.20;0.20;;;2.30;99.90;;;;;;5074783;28;20468;-52
2021/12/21 13:15:48;;;;;;;0.30;0.30;;;2.30;99.90;;;;;;5073006;28;20036;-51
2021/12/21 13:18:18;;;;;;;0.70;0.47;;;2.30;99.90;;;;;;5074244;28;20456;-46
2021/12/21 13:20:47;;;;;;;0.00;0.00;;;1.90;99.90;;;;;;5074802;28;20035;-51
2021/12/21 13:23:19;;;;;;;0.32;0.32;;;2.00;99.90;;;;;;5074348;28;20043;-53
2021/12/21 13:26:01;;;;;;;0.13;0.13;;;2.00;99.90;;;;;;5074645;28;20113;-47
2021/12/21 13:28:29;;;;;;;2.65;2.38;;;2.00;99.90;;;;;;5073634;28;20036;-48
2021/12/21 13:30:57;;;;;;;0.00;0.00;;;2.10;99.90;;;;;;5072658;28;20036;-49
2021/12/21 13:33:27;;;;;;;0.05;0.05;;;2.10;99.90;;;;;;5074217;28;20031;-51
2021/12/21 13:35:57;;;;;;;0.00;0.00;;;2.20;99.90;;;;;;5073054;28;20493;-50
2021/12/21 13:38:25;;;;;;;0.85;0.40;;;2.20;99.90;;;;;;5074080;28;20024;-50
2021/12/21 13:41:05;;;;;;;0.00;0.00;;;2.20;99.90;;;;;;5073980;28;20443;-52
2021/12/21 13:43:31;;;;;;;0.00;0.00;;;2.50;99.90;;;;;;5073998;28;20147;-46
2021/12/21 13:46:02;;;;;;;0.65;0.65;;;2.90;99.90;;;;;;5074129;28;20064;-48
2021/12/21 13:48:32;;;;;;;0.75;0.45;;;2.90;99.90;;;;;;5074329;28;20020;-49
2021/12/21 13:51:13;;;;;;;0.00;0.00;;;2.50;99.90;;;;;;5074246;28;20029;-51
2021/12/21 13:53:45;;;;;;;0.70;0.70;;;2.40;99.90;;;;;;5073767;28;20027;-49